createdAt,value
2016-12-29T00:00:07.808Z,78.13
2016-12-29T00:00:29.882Z,78.27
2016-12-29T00:00:52.031Z,78.45
2016-12-29T00:01:13.788Z,78.18
2016-12-29T00:01:35.578Z,77.97
2016-12-29T00:02:02.320Z,78.20
2016-12-29T00:02:24.958Z,77.99
2016-12-29T00:02:46.824Z,77.90
2016-12-29T00:03:08.567Z,78.06
2016-12-29T00:03:30.321Z,78.34
2016-12-29T00:04:18.580Z,78.78
2016-12-29T00:04:40.339Z,78.76
2016-12-29T00:05:29.609Z,78.88
2016-12-29T00:05:56.128Z,78.34
2016-12-29T00:06:17.872Z,78.43
2016-12-29T00:06:39.677Z,78.16
2016-12-29T00:07:01.446Z,78.21
2016-12-29T00:07:23.204Z,78.28
2016-12-29T00:07:44.963Z,78.06
2016-12-29T00:08:06.730Z,78.06
2016-12-29T00:08:28.538Z,78.24
2016-12-29T00:08:50.292Z,78.20
2016-12-29T00:09:43.337Z,77.97
2016-12-29T00:10:05.108Z,78.04
2016-12-29T00:10:26.871Z,78.11
2016-12-29T00:10:53.376Z,78.20
2016-12-29T00:11:15.159Z,78.18
2016-12-29T00:11:37.118Z,78.11
2016-12-29T00:11:58.900Z,78.15
2016-12-29T00:12:20.657Z,77.94
2016-12-29T00:12:42.397Z,77.08
2016-12-29T00:13:04.153Z,77.24
2016-12-29T00:13:25.895Z,77.11
2016-12-29T00:13:47.972Z,77.42
2016-12-29T00:14:09.734Z,77.59
2016-12-29T00:14:31.496Z,77.66
2016-12-29T00:14:53.235Z,77.94
2016-12-29T00:15:15.028Z,77.84
2016-12-29T00:15:36.865Z,77.86
2016-12-29T00:16:03.387Z,78.00
2016-12-29T00:16:25.131Z,77.97
2016-12-29T00:16:46.885Z,78.09
2016-12-29T00:17:35.200Z,77.65
2016-12-29T00:17:56.999Z,77.58
2016-12-29T00:18:18.740Z,77.39
2016-12-29T00:18:45.259Z,77.51
2016-12-29T00:19:07.108Z,77.54
2016-12-29T00:19:28.945Z,77.24
2016-12-29T00:19:50.735Z,77.24
2016-12-29T00:20:18.267Z,77.11
2016-12-29T00:20:40.028Z,77.34
2016-12-29T00:21:01.795Z,77.33
2016-12-29T00:21:23.555Z,77.58
2016-12-29T00:21:46.327Z,77.57
2016-12-29T00:22:13.849Z,77.49
2016-12-29T00:22:40.393Z,77.58
2016-12-29T00:23:06.918Z,77.73
2016-12-29T00:23:28.730Z,77.78
2016-12-29T00:23:50.478Z,77.60
2016-12-29T00:24:12.246Z,77.83
2016-12-29T00:24:34.009Z,77.71
2016-12-29T00:24:56.781Z,77.65
2016-12-29T00:25:24.315Z,77.28
2016-12-29T00:25:46.166Z,77.30
2016-12-29T00:26:07.995Z,77.80
2016-12-29T00:26:34.510Z,77.59
2016-12-29T00:26:56.289Z,77.65
2016-12-29T00:27:18.056Z,77.46
2016-12-29T00:27:39.810Z,77.20
2016-12-29T00:28:01.555Z,76.85
2016-12-29T00:28:23.297Z,76.70
2016-12-29T00:28:45.043Z,76.89
2016-12-29T00:29:06.793Z,76.95
2016-12-29T00:29:29.599Z,76.98
2016-12-29T00:29:51.340Z,76.77
2016-12-29T00:30:13.100Z,76.86
2016-12-29T00:30:34.870Z,76.95
2016-12-29T00:30:56.629Z,76.97
2016-12-29T00:31:23.150Z,77.07
2016-12-29T00:31:45.134Z,77.06
2016-12-29T00:32:07.007Z,77.08
2016-12-29T00:32:28.783Z,76.60
2016-12-29T00:32:51.552Z,76.95
2016-12-29T00:33:13.305Z,76.85
2016-12-29T00:33:39.815Z,77.19
2016-12-29T00:34:06.329Z,77.25
2016-12-29T00:34:28.081Z,77.30
2016-12-29T00:34:50.830Z,77.04
2016-12-29T00:35:12.566Z,76.77
2016-12-29T00:35:34.327Z,76.83
2016-12-29T00:35:56.092Z,76.90
2016-12-29T00:36:17.851Z,77.07
2016-12-29T00:36:39.597Z,77.04
2016-12-29T00:37:01.353Z,77.03
2016-12-29T00:37:23.215Z,76.76
2016-12-29T00:37:44.957Z,77.05
2016-12-29T00:38:06.944Z,77.04
2016-12-29T00:38:31.392Z,77.07
2016-12-29T00:38:53.219Z,76.65
2016-12-29T00:39:14.970Z,76.82
2016-12-29T00:39:37.722Z,76.96
2016-12-29T00:39:59.483Z,77.00
2016-12-29T00:40:21.246Z,76.99
2016-12-29T00:40:48.065Z,76.88
2016-12-29T00:41:12.784Z,76.59
2016-12-29T00:41:34.518Z,75.99
2016-12-29T00:41:56.282Z,75.99
2016-12-29T00:42:49.335Z,76.51
2016-12-29T00:43:11.132Z,76.14
2016-12-29T00:43:32.881Z,76.54
2016-12-29T00:43:54.612Z,76.24
2016-12-29T00:44:21.118Z,76.37
2016-12-29T00:44:42.868Z,76.42
2016-12-29T00:45:04.683Z,76.71
2016-12-29T00:45:26.448Z,76.75
2016-12-29T00:45:48.210Z,77.03
2016-12-29T00:46:09.980Z,76.77
2016-12-29T00:46:34.492Z,76.35
2016-12-29T00:46:56.323Z,76.65
2016-12-29T00:47:18.071Z,76.48
2016-12-29T00:47:39.815Z,76.54
2016-12-29T00:48:06.329Z,76.61
2016-12-29T00:48:28.233Z,76.58
2016-12-29T00:49:16.541Z,76.81
2016-12-29T00:49:38.310Z,76.62
2016-12-29T00:50:00.126Z,76.26
2016-12-29T00:50:26.685Z,76.19
2016-12-29T00:50:53.255Z,76.36
2016-12-29T00:51:15.009Z,76.31
2016-12-29T00:51:36.771Z,76.44
2016-12-29T00:51:58.616Z,76.17
2016-12-29T00:52:20.544Z,76.32
2016-12-29T00:52:42.378Z,76.37
2016-12-29T00:53:05.300Z,76.15
2016-12-29T00:53:31.816Z,76.15
2016-12-29T00:53:58.349Z,76.40
2016-12-29T00:54:20.118Z,76.59
2016-12-29T00:54:41.859Z,76.62
2016-12-29T00:55:04.609Z,76.75
2016-12-29T00:55:26.351Z,76.72
2016-12-29T00:55:48.111Z,76.63
2016-12-29T00:56:14.641Z,76.81
2016-12-29T00:56:36.412Z,76.80
2016-12-29T00:57:02.957Z,77.05
2016-12-29T00:57:52.243Z,76.64
2016-12-29T00:58:29.278Z,76.98
2016-12-29T00:58:51.031Z,76.87
2016-12-29T00:59:12.870Z,76.86
2016-12-29T00:59:37.409Z,77.01
2016-12-29T00:59:59.297Z,76.96
2016-12-29T01:00:21.043Z,77.05
2016-12-29T01:00:42.787Z,77.18
2016-12-29T01:01:04.545Z,77.35
2016-12-29T01:01:57.617Z,77.11
2016-12-29T01:02:19.373Z,77.30
2016-12-29T01:02:45.894Z,77.49
2016-12-29T01:03:08.027Z,77.28
2016-12-29T01:03:29.775Z,77.32
2016-12-29T01:03:58.745Z,77.02
2016-12-29T01:04:20.571Z,77.24
2016-12-29T01:04:42.302Z,77.39
2016-12-29T01:05:04.112Z,77.50
2016-12-29T01:05:58.153Z,77.31
2016-12-29T01:06:19.929Z,77.29
2016-12-29T01:06:46.460Z,77.17
2016-12-29T01:07:08.238Z,77.11
2016-12-29T01:07:29.997Z,77.22
2016-12-29T01:07:51.776Z,77.24
2016-12-29T01:08:13.515Z,77.41
2016-12-29T01:08:35.299Z,77.02
2016-12-29T01:08:57.038Z,77.34
2016-12-29T01:09:18.784Z,77.46
2016-12-29T01:09:40.627Z,77.47
2016-12-29T01:10:07.244Z,77.35
2016-12-29T01:10:28.995Z,77.33
2016-12-29T01:10:50.791Z,77.51
2016-12-29T01:11:13.555Z,77.48
2016-12-29T01:11:41.065Z,77.56
2016-12-29T01:12:02.822Z,77.52
2016-12-29T01:12:24.765Z,77.58
2016-12-29T01:12:46.526Z,77.45
2016-12-29T01:13:08.283Z,77.46
2016-12-29T01:13:30.038Z,77.62
2016-12-29T01:13:51.774Z,77.45
2016-12-29T01:14:13.575Z,77.66
2016-12-29T01:14:35.328Z,77.57
2016-12-29T01:15:01.861Z,77.73
2016-12-29T01:15:28.430Z,77.54
2016-12-29T01:16:21.475Z,77.62
2016-12-29T01:16:43.226Z,77.63
2016-12-29T01:17:05.987Z,77.69
2016-12-29T01:17:27.744Z,77.86
2016-12-29T01:17:49.550Z,78.02
2016-12-29T01:18:11.299Z,77.91
2016-12-29T01:18:33.136Z,77.88
2016-12-29T01:18:54.887Z,77.82
2016-12-29T01:19:16.679Z,77.75
2016-12-29T01:19:39.437Z,77.67
2016-12-29T01:20:01.180Z,77.72
2016-12-29T01:20:22.928Z,77.86
2016-12-29T01:20:44.718Z,77.89
2016-12-29T01:21:11.252Z,78.06
2016-12-29T01:21:33.009Z,78.23
2016-12-29T01:21:59.529Z,78.35
2016-12-29T01:22:26.063Z,78.68
2016-12-29T01:22:47.887Z,78.89
2016-12-29T01:23:09.811Z,79.00
2016-12-29T01:23:31.598Z,79.01
2016-12-29T01:23:53.341Z,79.17
2016-12-29T01:24:15.136Z,79.25
2016-12-29T01:24:37.043Z,79.17
2016-12-29T01:25:03.558Z,79.11
2016-12-29T01:25:25.315Z,79.22
2016-12-29T01:25:48.075Z,78.90
2016-12-29T01:26:09.873Z,78.98
2016-12-29T01:26:58.223Z,78.54
2016-12-29T01:27:20.975Z,78.64
2016-12-29T01:27:42.758Z,78.43
2016-12-29T01:28:04.529Z,78.46
2016-12-29T01:28:52.793Z,78.66
2016-12-29T01:29:14.645Z,78.69
2016-12-29T01:29:36.416Z,78.73
2016-12-29T01:29:58.272Z,78.73
2016-12-29T01:30:20.171Z,78.77
2016-12-29T01:30:41.934Z,78.80
2016-12-29T01:31:03.687Z,78.66
2016-12-29T01:31:25.630Z,78.84
2016-12-29T01:31:52.141Z,78.50
2016-12-29T01:32:13.894Z,78.52
2016-12-29T01:33:02.187Z,78.52
2016-12-29T01:33:23.952Z,78.50
2016-12-29T01:33:45.684Z,78.57
2016-12-29T01:34:12.205Z,78.64
2016-12-29T01:34:34.048Z,78.69
2016-12-29T01:34:55.804Z,78.88
2016-12-29T01:35:17.562Z,78.81
2016-12-29T01:36:05.865Z,79.13
2016-12-29T01:36:28.627Z,78.94
2016-12-29T01:36:50.370Z,79.17
2016-12-29T01:37:12.146Z,79.25
2016-12-29T01:37:33.907Z,79.11
2016-12-29T01:37:55.658Z,79.15
2016-12-29T01:38:17.463Z,79.22
2016-12-29T01:38:39.243Z,78.96
2016-12-29T01:39:02.000Z,78.71
2016-12-29T01:39:23.754Z,78.60
2016-12-29T01:39:45.505Z,78.57
2016-12-29T01:40:33.828Z,78.70
2016-12-29T01:41:00.323Z,78.66
2016-12-29T01:41:22.132Z,78.73
2016-12-29T01:41:43.898Z,78.80
2016-12-29T01:42:05.665Z,78.82
2016-12-29T01:42:28.432Z,78.86
2016-12-29T01:43:16.799Z,78.69
2016-12-29T01:43:38.822Z,78.75
2016-12-29T01:44:00.793Z,79.05
2016-12-29T01:44:25.133Z,79.23
2016-12-29T01:44:47.916Z,79.28
2016-12-29T01:45:14.439Z,79.51
2016-12-29T01:45:36.276Z,79.71
2016-12-29T01:45:58.015Z,79.73
2016-12-29T01:46:19.763Z,79.77
2016-12-29T01:46:46.289Z,79.95
2016-12-29T01:47:08.230Z,79.78
2016-12-29T01:47:29.988Z,79.72
2016-12-29T01:47:51.745Z,79.46
2016-12-29T01:48:42.067Z,79.46
2016-12-29T01:49:03.865Z,79.64
2016-12-29T01:49:25.611Z,79.59
2016-12-29T01:49:47.376Z,79.50
2016-12-29T01:50:09.118Z,79.48
2016-12-29T01:50:36.612Z,79.64
2016-12-29T01:50:58.364Z,79.58
2016-12-29T01:51:20.125Z,79.62
2016-12-29T01:51:41.878Z,79.57
2016-12-29T01:52:03.677Z,79.63
2016-12-29T01:52:25.437Z,79.49
2016-12-29T01:52:47.266Z,79.69
2016-12-29T01:53:09.088Z,79.54
2016-12-29T01:53:35.603Z,79.69
2016-12-29T01:53:57.372Z,79.71
2016-12-29T01:54:45.704Z,79.60
2016-12-29T01:55:13.218Z,79.31
2016-12-29T01:55:34.969Z,79.35
2016-12-29T01:55:56.716Z,79.36
2016-12-29T01:56:18.455Z,79.47
2016-12-29T01:56:40.215Z,79.54
2016-12-29T01:57:01.972Z,79.37
2016-12-29T01:57:23.710Z,79.59
2016-12-29T01:58:16.752Z,79.71
2016-12-29T01:58:38.505Z,79.62
2016-12-29T01:59:00.288Z,79.75
2016-12-29T01:59:22.060Z,79.94
2016-12-29T01:59:43.808Z,80.00
2016-12-29T02:00:05.590Z,80.15
2016-12-29T02:00:27.318Z,79.81
2016-12-29T02:00:49.082Z,79.57
2016-12-29T02:01:10.848Z,79.70
2016-12-29T02:01:32.593Z,79.59
2016-12-29T02:01:54.355Z,79.61
2016-12-29T02:02:16.115Z,79.41
2016-12-29T02:03:05.406Z,79.66
2016-12-29T02:03:27.167Z,79.59
2016-12-29T02:03:48.905Z,79.68
2016-12-29T02:04:10.659Z,79.69
2016-12-29T02:04:32.409Z,79.73
2016-12-29T02:04:58.947Z,79.74
2016-12-29T02:05:25.459Z,79.76
2016-12-29T02:05:48.212Z,79.80
2016-12-29T02:06:09.958Z,79.61
2016-12-29T02:06:31.703Z,79.56
2016-12-29T02:06:53.460Z,79.54
2016-12-29T02:07:15.228Z,79.65
2016-12-29T02:07:37.008Z,79.55
2016-12-29T02:07:59.773Z,79.56
2016-12-29T02:08:21.561Z,79.91
2016-12-29T02:08:44.372Z,79.85
2016-12-29T02:09:07.135Z,80.00
2016-12-29T02:09:29.916Z,79.90
2016-12-29T02:09:51.676Z,79.83
2016-12-29T02:10:13.409Z,79.94
2016-12-29T02:10:35.159Z,80.06
2016-12-29T02:10:56.913Z,80.24
2016-12-29T02:11:18.672Z,80.28
2016-12-29T02:11:41.447Z,80.39
2016-12-29T02:12:03.206Z,80.51
2016-12-29T02:12:25.002Z,80.65
2016-12-29T02:12:51.780Z,80.67
2016-12-29T02:13:13.586Z,80.54
2016-12-29T02:14:01.865Z,80.38
2016-12-29T02:14:34.151Z,80.60
2016-12-29T02:14:55.895Z,80.52
2016-12-29T02:15:17.658Z,80.58
2016-12-29T02:15:39.459Z,80.39
2016-12-29T02:16:01.213Z,80.38
2016-12-29T02:16:27.734Z,80.42
2016-12-29T02:16:49.483Z,80.30
2016-12-29T02:17:11.279Z,80.15
2016-12-29T02:17:33.092Z,80.08
2016-12-29T02:17:54.857Z,80.12
2016-12-29T02:18:16.742Z,79.95
2016-12-29T02:18:44.246Z,79.96
2016-12-29T02:19:06.000Z,80.01
2016-12-29T02:19:54.413Z,79.88
2016-12-29T02:20:18.170Z,79.96
2016-12-29T02:20:40.065Z,80.01
2016-12-29T02:21:01.829Z,80.08
2016-12-29T02:21:24.582Z,80.20
2016-12-29T02:21:46.352Z,80.28
2016-12-29T02:22:08.142Z,80.31
2016-12-29T02:22:34.707Z,80.58
2016-12-29T02:23:08.891Z,80.50
2016-12-29T02:23:30.650Z,80.28
2016-12-29T02:23:52.445Z,80.25
2016-12-29T02:24:15.228Z,80.31
2016-12-29T02:24:36.989Z,80.33
2016-12-29T02:24:58.766Z,80.37
2016-12-29T02:25:20.663Z,80.39
2016-12-29T02:25:42.601Z,80.36
2016-12-29T02:26:04.368Z,80.16
2016-12-29T02:26:30.880Z,80.03
2016-12-29T02:26:58.515Z,79.98
2016-12-29T02:27:25.033Z,79.63
2016-12-29T02:27:47.838Z,79.46
2016-12-29T02:28:09.603Z,79.07
2016-12-29T02:28:32.391Z,78.82
2016-12-29T02:28:54.225Z,78.86
2016-12-29T02:29:16.195Z,79.03
2016-12-29T02:29:38.358Z,78.92
2016-12-29T02:30:00.095Z,79.13
2016-12-29T02:30:21.885Z,79.06
2016-12-29T02:30:48.403Z,78.97
2016-12-29T02:31:10.179Z,79.07
2016-12-29T02:31:31.939Z,79.16
2016-12-29T02:31:58.432Z,79.45
2016-12-29T02:32:21.205Z,79.30
2016-12-29T02:32:47.731Z,79.52
2016-12-29T02:33:36.048Z,79.59
2016-12-29T02:33:58.854Z,79.80
2016-12-29T02:34:20.664Z,79.88
2016-12-29T02:34:42.435Z,79.83
2016-12-29T02:35:04.212Z,79.76
2016-12-29T02:35:30.722Z,79.82
2016-12-29T02:35:58.233Z,79.86
2016-12-29T02:36:19.995Z,80.09
2016-12-29T02:36:51.252Z,80.13
2016-12-29T02:37:13.152Z,80.18
2016-12-29T02:37:34.909Z,80.04
2016-12-29T02:37:57.665Z,80.03
2016-12-29T02:38:24.183Z,80.07
2016-12-29T02:38:50.710Z,79.81
2016-12-29T02:39:12.452Z,79.68
2016-12-29T02:39:34.195Z,79.80
2016-12-29T02:39:57.197Z,79.97
2016-12-29T02:40:28.465Z,80.02
2016-12-29T02:40:50.218Z,79.91
2016-12-29T02:41:11.969Z,79.99
2016-12-29T02:41:38.485Z,79.95
2016-12-29T02:42:03.857Z,80.04
2016-12-29T02:42:25.752Z,79.88
2016-12-29T02:42:47.581Z,79.83
2016-12-29T02:43:10.441Z,79.77
2016-12-29T02:43:32.192Z,79.78
2016-12-29T02:43:53.962Z,79.91
2016-12-29T02:44:20.478Z,80.03
2016-12-29T02:44:42.241Z,80.04
2016-12-29T02:45:30.923Z,80.25
2016-12-29T02:45:52.903Z,80.29
2016-12-29T02:46:14.789Z,80.30
2016-12-29T02:46:36.598Z,80.30
2016-12-29T02:47:35.386Z,80.15
2016-12-29T02:47:57.152Z,80.20
2016-12-29T02:48:18.900Z,80.30
2016-12-29T02:48:40.721Z,80.14
2016-12-29T02:49:11.994Z,80.19
2016-12-29T02:49:33.782Z,80.00
2016-12-29T02:49:55.651Z,79.95
2016-12-29T02:50:17.402Z,80.13
2016-12-29T02:50:39.145Z,80.07
2016-12-29T02:51:00.934Z,79.96
2016-12-29T02:51:28.449Z,79.94
2016-12-29T02:51:54.966Z,79.87
2016-12-29T02:52:16.728Z,79.80
2016-12-29T02:53:06.277Z,79.86
2016-12-29T02:53:28.163Z,80.06
2016-12-29T02:53:49.971Z,80.05
2016-12-29T02:54:38.231Z,80.09
2016-12-29T02:55:00.043Z,80.08
2016-12-29T02:55:21.805Z,80.05
2016-12-29T02:55:43.809Z,79.83
2016-12-29T02:56:05.750Z,79.81
2016-12-29T02:56:27.545Z,79.76
2016-12-29T02:56:49.299Z,79.78
2016-12-29T02:57:11.047Z,79.80
2016-12-29T02:57:32.803Z,79.79
2016-12-29T02:57:54.595Z,79.77
2016-12-29T02:58:47.652Z,79.92
2016-12-29T02:59:10.451Z,80.06
2016-12-29T02:59:32.215Z,80.13
2016-12-29T03:00:20.477Z,80.04
2016-12-29T03:00:43.284Z,80.19
2016-12-29T03:01:05.173Z,80.25
2016-12-29T03:01:27.926Z,80.05
2016-12-29T03:01:49.747Z,80.11
2016-12-29T03:02:16.233Z,79.92
2016-12-29T03:02:37.976Z,79.89
2016-12-29T03:02:59.848Z,79.81
2016-12-29T03:03:21.591Z,80.09
2016-12-29T03:03:43.336Z,80.06
2016-12-29T03:04:06.107Z,80.05
2016-12-29T03:04:28.880Z,80.04
2016-12-29T03:04:50.642Z,80.12
2016-12-29T03:05:12.392Z,80.07
2016-12-29T03:05:34.133Z,79.87
2016-12-29T03:05:55.953Z,79.96
2016-12-29T03:06:17.741Z,79.92
2016-12-29T03:06:39.510Z,79.81
2016-12-29T03:07:01.267Z,79.91
2016-12-29T03:07:23.053Z,79.88
2016-12-29T03:07:44.968Z,79.99
2016-12-29T03:08:07.713Z,79.92
2016-12-29T03:08:29.709Z,79.81
2016-12-29T03:08:51.620Z,79.92
2016-12-29T03:09:14.378Z,80.04
2016-12-29T03:09:36.131Z,79.96
2016-12-29T03:09:57.892Z,79.85
2016-12-29T03:10:20.770Z,80.03
2016-12-29T03:10:42.547Z,80.18
2016-12-29T03:11:04.322Z,80.32
2016-12-29T03:11:53.574Z,80.57
2016-12-29T03:12:16.330Z,80.60
2016-12-29T03:12:38.120Z,80.63
2016-12-29T03:12:59.863Z,80.70
2016-12-29T03:13:21.760Z,80.67
2016-12-29T03:13:43.559Z,80.64
2016-12-29T03:14:05.342Z,80.68
2016-12-29T03:14:28.067Z,80.65
2016-12-29T03:14:50.824Z,80.63
2016-12-29T03:15:12.574Z,80.59
2016-12-29T03:15:34.319Z,80.59
2016-12-29T03:16:00.829Z,80.67
2016-12-29T03:16:22.700Z,80.64
2016-12-29T03:16:44.489Z,80.66
2016-12-29T03:17:06.274Z,80.66
2016-12-29T03:17:29.031Z,80.86
2016-12-29T03:17:55.551Z,80.82
2016-12-29T03:18:23.093Z,80.60
2016-12-29T03:18:44.849Z,80.42
2016-12-29T03:19:11.371Z,80.35
2016-12-29T03:19:33.125Z,80.27
2016-12-29T03:19:54.906Z,80.03
2016-12-29T03:20:16.648Z,79.88
2016-12-29T03:20:38.496Z,79.88
2016-12-29T03:21:01.249Z,79.88
2016-12-29T03:21:25.201Z,79.75
2016-12-29T03:21:47.015Z,79.60
2016-12-29T03:22:08.926Z,79.53
2016-12-29T03:22:30.672Z,79.42
2016-12-29T03:22:52.483Z,79.33
2016-12-29T03:23:41.761Z,79.30
2016-12-29T03:24:03.525Z,79.15
2016-12-29T03:24:30.052Z,79.02
2016-12-29T03:24:51.816Z,78.94
2016-12-29T03:25:19.338Z,78.84
2016-12-29T03:25:41.166Z,79.03
2016-12-29T03:26:29.418Z,79.21
2016-12-29T03:26:51.245Z,79.33
2016-12-29T03:27:13.085Z,79.39
2016-12-29T03:27:34.815Z,79.48
2016-12-29T03:27:56.581Z,79.65
2016-12-29T03:28:18.335Z,79.70
2016-12-29T03:28:40.080Z,79.81
2016-12-29T03:29:01.819Z,79.90
2016-12-29T03:29:28.392Z,79.85
2016-12-29T03:29:50.164Z,80.01
2016-12-29T03:30:11.902Z,80.30
2016-12-29T03:31:01.195Z,80.29
2016-12-29T03:31:22.963Z,80.34
2016-12-29T03:31:44.719Z,80.43
2016-12-29T03:32:06.488Z,80.54
2016-12-29T03:32:29.223Z,80.45
2016-12-29T03:32:55.747Z,80.56
2016-12-29T03:33:45.040Z,80.39
2016-12-29T03:34:06.794Z,80.37
2016-12-29T03:34:29.553Z,80.38
2016-12-29T03:34:51.298Z,80.24
2016-12-29T03:35:17.822Z,80.30
2016-12-29T03:35:39.585Z,80.40
2016-12-29T03:36:54.402Z,80.58
2016-12-29T03:37:17.201Z,80.32
2016-12-29T03:37:38.956Z,80.34
2016-12-29T03:38:00.706Z,80.28
2016-12-29T03:38:22.478Z,80.17
2016-12-29T03:38:49.009Z,80.15
2016-12-29T03:39:16.519Z,80.25
2016-12-29T03:39:38.256Z,80.39
2016-12-29T03:40:04.788Z,80.36
2016-12-29T03:40:26.542Z,80.36
2016-12-29T03:40:48.318Z,80.47
2016-12-29T03:41:10.120Z,80.66
2016-12-29T03:41:31.889Z,80.76
2016-12-29T03:41:58.396Z,80.87
2016-12-29T03:42:20.171Z,80.90
2016-12-29T03:42:42.042Z,80.86
2016-12-29T03:43:05.002Z,80.72
2016-12-29T03:43:26.863Z,80.65
2016-12-29T03:43:48.616Z,80.59
2016-12-29T03:44:10.504Z,80.62
2016-12-29T03:44:32.395Z,80.45
2016-12-29T03:44:55.172Z,80.48
2016-12-29T03:45:17.035Z,80.65
2016-12-29T03:45:43.565Z,80.58
2016-12-29T03:46:05.321Z,80.56
2016-12-29T03:46:28.065Z,80.60
2016-12-29T03:47:18.436Z,80.72
2016-12-29T03:47:43.866Z,80.68
2016-12-29T03:48:10.404Z,80.73
2016-12-29T03:49:08.862Z,80.47
2016-12-29T03:49:30.618Z,80.29
2016-12-29T03:49:52.374Z,80.19
2016-12-29T03:50:14.123Z,80.13
2016-12-29T03:50:35.895Z,80.27
2016-12-29T03:50:58.675Z,80.16
2016-12-29T03:51:20.557Z,80.13
2016-12-29T03:51:43.332Z,80.34
2016-12-29T03:52:06.167Z,80.43
2016-12-29T03:52:54.452Z,80.56
2016-12-29T03:53:16.296Z,80.64
2016-12-29T03:53:38.455Z,80.65
2016-12-29T03:54:00.291Z,80.75
2016-12-29T03:54:22.118Z,80.96
2016-12-29T03:54:44.878Z,81.08
2016-12-29T03:55:11.417Z,80.86
2016-12-29T03:55:33.181Z,80.79
2016-12-29T03:55:54.967Z,80.61
2016-12-29T03:56:16.769Z,80.63
2016-12-29T03:56:38.906Z,80.74
2016-12-29T03:57:01.076Z,80.89
2016-12-29T03:57:22.956Z,80.83
2016-12-29T03:57:44.713Z,80.75
2016-12-29T03:58:06.492Z,80.70
2016-12-29T03:58:28.264Z,80.70
2016-12-29T03:58:50.017Z,80.72
2016-12-29T03:59:11.784Z,80.79
2016-12-29T03:59:33.534Z,80.84
2016-12-29T03:59:56.282Z,80.96
2016-12-29T04:00:18.037Z,81.11
2016-12-29T04:00:39.783Z,81.11
2016-12-29T04:01:01.535Z,81.35
2016-12-29T04:01:28.044Z,81.49
2016-12-29T04:01:49.828Z,81.69
2016-12-29T04:02:11.620Z,81.67
2016-12-29T04:02:35.385Z,81.43
2016-12-29T04:02:58.134Z,81.29
2016-12-29T04:03:19.889Z,81.16
2016-12-29T04:03:41.652Z,81.06
2016-12-29T04:04:03.413Z,81.11
2016-12-29T04:04:30.068Z,81.10
2016-12-29T04:04:52.890Z,80.88
2016-12-29T04:05:14.647Z,80.94
2016-12-29T04:05:36.388Z,80.95
2016-12-29T04:05:58.148Z,81.04
2016-12-29T04:06:19.978Z,81.15
2016-12-29T04:06:41.825Z,81.30
2016-12-29T04:07:34.871Z,81.18
2016-12-29T04:07:56.693Z,81.14
2016-12-29T04:08:49.748Z,81.41
2016-12-29T04:09:17.256Z,81.25
2016-12-29T04:09:39.009Z,81.19
2016-12-29T04:10:00.765Z,81.10
2016-12-29T04:10:22.551Z,81.02
2016-12-29T04:10:44.289Z,81.01
2016-12-29T04:11:06.285Z,81.05
2016-12-29T04:11:28.068Z,80.95
2016-12-29T04:11:49.820Z,80.70
2016-12-29T04:12:11.591Z,80.67
2016-12-29T04:12:33.368Z,80.95
2016-12-29T04:12:55.157Z,81.11
2016-12-29T04:13:19.515Z,81.27
2016-12-29T04:13:42.305Z,81.33
2016-12-29T04:14:08.821Z,81.42
2016-12-29T04:14:35.357Z,81.52
2016-12-29T04:14:57.156Z,81.57
2016-12-29T04:15:18.906Z,81.57
2016-12-29T04:15:40.661Z,81.65
2016-12-29T04:16:02.422Z,81.57
2016-12-29T04:16:24.176Z,81.61
2016-12-29T04:16:45.922Z,81.69
2016-12-29T04:17:07.675Z,81.62
2016-12-29T04:17:29.538Z,81.72
2016-12-29T04:17:56.083Z,81.88
2016-12-29T04:18:17.860Z,81.96
2016-12-29T04:18:39.677Z,82.00
2016-12-29T04:19:01.428Z,81.84
2016-12-29T04:19:23.217Z,81.92
2016-12-29T04:19:45.018Z,82.09
2016-12-29T04:20:07.914Z,81.87
2016-12-29T04:20:30.764Z,81.72
2016-12-29T04:20:52.512Z,81.67
2016-12-29T04:21:15.276Z,81.57
2016-12-29T04:21:37.100Z,81.68
2016-12-29T04:22:03.623Z,81.82
2016-12-29T04:22:27.362Z,81.88
2016-12-29T04:22:49.207Z,81.88
2016-12-29T04:23:10.990Z,81.84
2016-12-29T04:23:32.794Z,81.90
2016-12-29T04:23:54.552Z,82.08
2016-12-29T04:24:16.319Z,82.13
2016-12-29T04:24:38.061Z,82.13
2016-12-29T04:25:01.809Z,82.35
2016-12-29T04:25:24.567Z,82.24
2016-12-29T04:25:46.427Z,82.24
2016-12-29T04:26:39.466Z,82.00
2016-12-29T04:27:01.231Z,82.28
2016-12-29T04:27:24.011Z,82.30
2016-12-29T04:27:45.809Z,82.10
2016-12-29T04:28:07.558Z,82.04
2016-12-29T04:28:29.310Z,82.01
2016-12-29T04:28:52.071Z,81.80
2016-12-29T04:29:15.825Z,81.67
2016-12-29T04:29:37.570Z,81.75
2016-12-29T04:29:59.333Z,81.75
2016-12-29T04:30:21.223Z,81.86
2016-12-29T04:30:43.090Z,81.86
2016-12-29T04:31:05.255Z,81.85
2016-12-29T04:31:26.999Z,81.83
2016-12-29T04:31:49.738Z,81.93
2016-12-29T04:32:11.486Z,82.09
2016-12-29T04:32:33.242Z,82.14
2016-12-29T04:32:59.765Z,81.99
2016-12-29T04:33:22.516Z,82.07
2016-12-29T04:33:44.424Z,81.97
2016-12-29T04:34:07.384Z,82.04
2016-12-29T04:34:32.793Z,82.05
2016-12-29T04:34:54.543Z,82.12
2016-12-29T04:35:16.493Z,82.09
2016-12-29T04:35:38.241Z,81.98
2016-12-29T04:36:00.066Z,81.83
2016-12-29T04:36:21.799Z,81.80
2016-12-29T04:36:43.566Z,81.74
2016-12-29T04:37:05.329Z,81.64
2016-12-29T04:37:58.439Z,81.58
2016-12-29T04:38:25.031Z,81.60
2016-12-29T04:38:47.802Z,81.61
2016-12-29T04:39:14.308Z,81.52
2016-12-29T04:39:36.062Z,81.53
2016-12-29T04:40:02.580Z,81.46
2016-12-29T04:40:24.334Z,81.17
2016-12-29T04:40:46.203Z,80.78
2016-12-29T04:41:12.728Z,80.55
2016-12-29T04:41:40.238Z,80.49
2016-12-29T04:42:02.005Z,80.42
2016-12-29T04:42:23.762Z,80.28
2016-12-29T04:42:50.297Z,80.08
2016-12-29T04:43:12.068Z,80.32
2016-12-29T04:43:33.826Z,80.48
2016-12-29T04:43:55.579Z,80.61
2016-12-29T04:44:48.620Z,80.93
2016-12-29T04:45:10.506Z,81.12
2016-12-29T04:45:33.193Z,81.34
2016-12-29T04:45:54.956Z,81.46
2016-12-29T04:46:16.742Z,81.39
2016-12-29T04:46:38.507Z,81.37
2016-12-29T04:47:00.257Z,81.41
2016-12-29T04:47:22.021Z,81.48
2016-12-29T04:47:44.785Z,81.62
2016-12-29T04:48:06.546Z,81.56
2016-12-29T04:48:28.308Z,81.55
2016-12-29T04:48:50.082Z,81.51
2016-12-29T04:49:11.886Z,81.61
2016-12-29T04:49:33.653Z,81.49
2016-12-29T04:49:57.957Z,81.40
2016-12-29T04:50:19.822Z,81.21
2016-12-29T04:50:41.942Z,81.23
2016-12-29T04:51:03.857Z,81.22
2016-12-29T04:52:09.026Z,81.43
2016-12-29T04:52:30.809Z,81.29
2016-12-29T04:52:52.567Z,81.09
2016-12-29T04:53:14.407Z,81.28
2016-12-29T04:53:37.209Z,81.40
2016-12-29T04:53:59.948Z,81.57
2016-12-29T04:54:21.733Z,81.74
2016-12-29T04:54:43.485Z,81.62
2016-12-29T04:55:09.997Z,81.69
2016-12-29T04:55:31.753Z,81.80
2016-12-29T04:55:53.554Z,81.94
2016-12-29T04:56:20.075Z,81.90
2016-12-29T04:56:41.821Z,81.83
2016-12-29T04:57:03.676Z,81.78
2016-12-29T04:57:26.470Z,81.73
2016-12-29T04:57:49.242Z,81.79
2016-12-29T04:58:11.063Z,81.80
2016-12-29T04:59:10.392Z,81.39
2016-12-29T04:59:37.910Z,81.44
2016-12-29T05:00:01.687Z,81.38
2016-12-29T05:00:28.247Z,81.39
2016-12-29T05:00:55.746Z,81.46
2016-12-29T05:01:17.537Z,81.40
2016-12-29T05:01:39.271Z,81.49
2016-12-29T05:02:05.815Z,81.60
2016-12-29T05:02:32.342Z,81.38
2016-12-29T05:02:54.152Z,81.37
2016-12-29T05:03:16.887Z,81.47
2016-12-29T05:03:43.413Z,81.47
2016-12-29T05:04:09.918Z,81.44
2016-12-29T05:04:31.671Z,81.64
2016-12-29T05:04:54.418Z,81.83
2016-12-29T05:05:17.290Z,81.83
2016-12-29T05:05:39.047Z,81.83
2016-12-29T05:06:00.819Z,81.98
2016-12-29T05:06:27.336Z,82.06
2016-12-29T05:06:49.100Z,81.99
2016-12-29T05:07:10.895Z,81.71
2016-12-29T05:07:32.651Z,81.67
2016-12-29T05:08:20.928Z,81.55
2016-12-29T05:08:42.868Z,81.40
2016-12-29T05:09:04.631Z,81.50
2016-12-29T05:09:26.378Z,81.68
2016-12-29T05:09:51.196Z,81.79
2016-12-29T05:10:12.939Z,81.81
2016-12-29T05:10:34.718Z,81.83
2016-12-29T05:10:56.468Z,81.91
2016-12-29T05:11:18.238Z,81.95
2016-12-29T05:11:44.806Z,81.85
2016-12-29T05:12:06.580Z,81.76
2016-12-29T05:12:28.340Z,81.74
2016-12-29T05:12:50.084Z,81.54
2016-12-29T05:13:11.865Z,81.37
2016-12-29T05:13:33.659Z,81.30
2016-12-29T05:14:00.188Z,81.31
2016-12-29T05:14:21.953Z,81.49
2016-12-29T05:14:43.686Z,81.62
2016-12-29T05:15:05.428Z,81.58